Metar Flugplatz Niederstetten

ETHN 301220Z 26014KT 9999 BKN007 OVC038 12/10 Q1023 GRN



Temperatur Niederstetten
12 Grad Celsius

QNH Niederstetten
1023
==============================================================

TAF Niederstetten:

TAF ETHN 291027Z 2911/3002 24010KT 9999 NSW FEW240 TEMPO 2911/2916 26012G22KT 9999 NSW SCT035 BKN240



Alle Angaben ohne Gewähr